sensor_id;sensor_type;location;lat;lon;timestamp;temperature;humidity
58413;DHT22;44209;52.952;6.790;2024-03-25T00:01:08;5.80;99.90
58413;DHT22;44209;52.952;6.790;2024-03-25T00:03:33;5.80;99.90
58413;DHT22;44209;52.952;6.790;2024-03-25T00:05:59;5.80;99.90
58413;DHT22;44209;52.952;6.790;2024-03-25T00:08:25;5.80;99.90
58413;DHT22;44209;52.952;6.790;2024-03-25T00:10:51;5.70;99.90
58413;DHT22;44209;52.952;6.790;2024-03-25T00:13:17;5.80;99.90
58413;DHT22;44209;52.952;6.790;2024-03-25T00:15:42;5.80;99.90
58413;DHT22;44209;52.952;6.790;2024-03-25T00:18:09;5.70;99.90
58413;DHT22;44209;52.952;6.790;2024-03-25T00:20:36;5.70;99.90
58413;DHT22;44209;52.952;6.790;2024-03-25T00:23:02;5.70;99.90
58413;DHT22;44209;52.952;6.790;2024-03-25T00:25:28;5.60;99.90
58413;DHT22;44209;52.952;6.790;2024-03-25T00:27:54;5.60;99.90
58413;DHT22;44209;52.952;6.790;2024-03-25T00:30:20;5.60;99.90
58413;DHT22;44209;52.952;6.790;2024-03-25T00:32:45;5.50;99.90
58413;DHT22;44209;52.952;6.790;2024-03-25T00:35:11;5.50;99.90
58413;DHT22;44209;52.952;6.790;2024-03-25T00:37:37;5.50;99.90
58413;DHT22;44209;52.952;6.790;2024-03-25T00:40:03;5.50;99.90
58413;DHT22;44209;52.952;6.790;2024-03-25T00:42:30;5.50;99.90
58413;DHT22;44209;52.952;6.790;2024-03-25T00:44:55;5.50;99.90
58413;DHT22;44209;52.952;6.790;2024-03-25T00:47:21;5.50;99.90
58413;DHT22;44209;52.952;6.790;2024-03-25T00:49:47;5.50;99.90
58413;DHT22;44209;52.952;6.790;2024-03-25T00:52:13;5.60;99.90
58413;DHT22;44209;52.952;6.790;2024-03-25T00:54:38;5.60;99.90
58413;DHT22;44209;52.952;6.790;2024-03-25T00:57:04;5.60;99.90
58413;DHT22;44209;52.952;6.790;2024-03-25T00:59:30;5.60;99.90
58413;DHT22;44209;52.952;6.790;2024-03-25T01:01:55;5.60;99.90
58413;DHT22;44209;52.952;6.790;2024-03-25T01:04:21;5.60;99.90
58413;DHT22;44209;52.952;6.790;2024-03-25T01:06:48;5.60;99.90
58413;DHT22;44209;52.952;6.790;2024-03-25T01:09:14;5.60;99.90
58413;DHT22;44209;52.952;6.790;2024-03-25T01:11:41;5.60;99.90
58413;DHT22;44209;52.952;6.790;2024-03-25T01:14:07;5.60;99.90
58413;DHT22;44209;52.952;6.790;2024-03-25T01:16:33;5.60;99.90
58413;DHT22;44209;52.952;6.790;2024-03-25T01:18:58;5.60;99.90
58413;DHT22;44209;52.952;6.790;2024-03-25T01:21:25;5.60;99.90
58413;DHT22;44209;52.952;6.790;2024-03-25T01:23:50;5.50;99.90
58413;DHT22;44209;52.952;6.790;2024-03-25T01:26:16;5.50;99.90
58413;DHT22;44209;52.952;6.790;2024-03-25T01:28:42;5.50;99.90
58413;DHT22;44209;52.952;6.790;2024-03-25T01:31:08;5.50;99.90
58413;DHT22;44209;52.952;6.790;2024-03-25T01:33:34;5.50;99.90
58413;DHT22;44209;52.952;6.790;2024-03-25T01:36:00;5.50;99.90
58413;DHT22;44209;52.952;6.790;2024-03-25T01:38:26;5.50;99.90
58413;DHT22;44209;52.952;6.790;2024-03-25T01:40:52;5.50;99.90
58413;DHT22;44209;52.952;6.790;2024-03-25T01:43:17;5.50;99.90
58413;DHT22;44209;52.952;6.790;2024-03-25T01:45:43;5.50;99.90
58413;DHT22;44209;52.952;6.790;2024-03-25T01:48:10;5.50;99.90
58413;DHT22;44209;52.952;6.790;2024-03-25T01:50:42;5.40;99.90
58413;DHT22;44209;52.952;6.790;2024-03-25T01:53:09;5.40;99.90
58413;DHT22;44209;52.952;6.790;2024-03-25T01:55:35;5.40;99.90
58413;DHT22;44209;52.952;6.790;2024-03-25T01:58:05;5.40;99.90
58413;DHT22;44209;52.952;6.790;2024-03-25T02:00:31;5.40;99.90
58413;DHT22;44209;52.952;6.790;2024-03-25T02:02:58;5.40;99.90
58413;DHT22;44209;52.952;6.790;2024-03-25T02:05:23;5.30;99.90
58413;DHT22;44209;52.952;6.790;2024-03-25T02:07:49;5.40;99.90
58413;DHT22;44209;52.952;6.790;2024-03-25T02:10:16;5.30;99.90
58413;DHT22;44209;52.952;6.790;2024-03-25T02:12:42;5.30;99.90
58413;DHT22;44209;52.952;6.790;2024-03-25T02:15:09;5.30;99.90
58413;DHT22;44209;52.952;6.790;2024-03-25T02:17:35;5.30;99.90
58413;DHT22;44209;52.952;6.790;2024-03-25T02:20:02;5.30;99.90
58413;DHT22;44209;52.952;6.790;2024-03-25T02:22:32;5.30;99.90
58413;DHT22;44209;52.952;6.790;2024-03-25T02:24:58;5.30;99.90
58413;DHT22;44209;52.952;6.790;2024-03-25T02:27:25;5.20;99.90
58413;DHT22;44209;52.952;6.790;2024-03-25T02:29:54;5.30;99.90
58413;DHT22;44209;52.952;6.790;2024-03-25T02:32:19;5.30;99.90
58413;DHT22;44209;52.952;6.790;2024-03-25T02:34:51;5.30;99.90
58413;DHT22;44209;52.952;6.790;2024-03-25T02:37:17;5.30;99.90
58413;DHT22;44209;52.952;6.790;2024-03-25T02:39:43;5.30;99.90
58413;DHT22;44209;52.952;6.790;2024-03-25T02:42:09;5.30;99.90
58413;DHT22;44209;52.952;6.790;2024-03-25T02:44:35;5.30;99.90
58413;DHT22;44209;52.952;6.790;2024-03-25T02:47:01;5.30;99.90
58413;DHT22;44209;52.952;6.790;2024-03-25T02:49:28;5.30;99.90
58413;DHT22;44209;52.952;6.790;2024-03-25T02:51:53;5.30;99.90
58413;DHT22;44209;52.952;6.790;2024-03-25T02:54:19;5.30;99.90
58413;DHT22;44209;52.952;6.790;2024-03-25T02:56:45;5.40;99.90
58413;DHT22;44209;52.952;6.790;2024-03-25T02:59:10;5.40;99.90
58413;DHT22;44209;52.952;6.790;2024-03-25T03:01:36;5.40;99.90
58413;DHT22;44209;52.952;6.790;2024-03-25T03:04:02;5.40;99.90
58413;DHT22;44209;52.952;6.790;2024-03-25T03:06:27;5.40;99.90
58413;DHT22;44209;52.952;6.790;2024-03-25T03:08:53;5.40;99.90
58413;DHT22;44209;52.952;6.790;2024-03-25T03:11:19;5.40;99.90
58413;DHT22;44209;52.952;6.790;2024-03-25T03:13:45;5.40;99.90
58413;DHT22;44209;52.952;6.790;2024-03-25T03:16:11;5.40;99.90
58413;DHT22;44209;52.952;6.790;2024-03-25T03:18:37;5.40;99.90
58413;DHT22;44209;52.952;6.790;2024-03-25T03:21:03;5.40;99.90
58413;DHT22;44209;52.952;6.790;2024-03-25T03:23:28;5.40;99.90
58413;DHT22;44209;52.952;6.790;2024-03-25T03:25:54;5.40;99.90
58413;DHT22;44209;52.952;6.790;2024-03-25T03:28:20;5.50;99.90
58413;DHT22;44209;52.952;6.790;2024-03-25T03:30:46;5.50;99.90
58413;DHT22;44209;52.952;6.790;2024-03-25T03:33:12;5.50;99.90
58413;DHT22;44209;52.952;6.790;2024-03-25T03:35:38;5.50;99.90
58413;DHT22;44209;52.952;6.790;2024-03-25T03:38:04;5.50;99.90
58413;DHT22;44209;52.952;6.790;2024-03-25T03:40:31;5.50;99.90
58413;DHT22;44209;52.952;6.790;2024-03-25T03:42:57;5.50;99.90
58413;DHT22;44209;52.952;6.790;2024-03-25T03:45:24;5.50;99.90
58413;DHT22;44209;52.952;6.790;2024-03-25T03:47:50;5.50;99.90
58413;DHT22;44209;52.952;6.790;2024-03-25T03:50:16;5.50;99.90
58413;DHT22;44209;52.952;6.790;2024-03-25T03:52:42;5.50;99.90
58413;DHT22;44209;52.952;6.790;2024-03-25T03:55:07;5.50;99.90
58413;DHT22;44209;52.952;6.790;2024-03-25T03:57:33;5.50;99.90
58413;DHT22;44209;52.952;6.790;2024-03-25T03:59:59;5.50;99.90
58413;DHT22;44209;52.952;6.790;2024-03-25T04:02:27;5.50;99.90
58413;DHT22;44209;52.952;6.790;2024-03-25T04:04:54;5.50;99.90
58413;DHT22;44209;52.952;6.790;2024-03-25T04:07:19;5.50;99.90
58413;DHT22;44209;52.952;6.790;2024-03-25T04:09:46;5.40;99.90
58413;DHT22;44209;52.952;6.790;2024-03-25T04:12:11;5.40;99.90
58413;DHT22;44209;52.952;6.790;2024-03-25T04:14:37;5.40;99.90
58413;DHT22;44209;52.952;6.790;2024-03-25T04:17:04;5.40;99.90
58413;DHT22;44209;52.952;6.790;2024-03-25T04:19:31;5.40;99.90
58413;DHT22;44209;52.952;6.790;2024-03-25T04:21:57;5.40;99.90
58413;DHT22;44209;52.952;6.790;2024-03-25T04:24:23;5.40;99.90
58413;DHT22;44209;52.952;6.790;2024-03-25T04:26:50;5.40;99.90
58413;DHT22;44209;52.952;6.790;2024-03-25T04:29:16;5.40;99.90
58413;DHT22;44209;52.952;6.790;2024-03-25T04:31:42;5.40;99.90
58413;DHT22;44209;52.952;6.790;2024-03-25T04:34:07;5.40;99.90
58413;DHT22;44209;52.952;6.790;2024-03-25T04:36:33;5.40;99.90
58413;DHT22;44209;52.952;6.790;2024-03-25T04:38:59;5.40;99.90
58413;DHT22;44209;52.952;6.790;2024-03-25T04:41:25;5.40;99.90
58413;DHT22;44209;52.952;6.790;2024-03-25T04:43:51;5.40;99.90
58413;DHT22;44209;52.952;6.790;2024-03-25T04:46:17;5.40;99.90
58413;DHT22;44209;52.952;6.790;2024-03-25T04:48:42;5.40;99.90
58413;DHT22;44209;52.952;6.790;2024-03-25T04:51:08;5.40;99.90
58413;DHT22;44209;52.952;6.790;2024-03-25T04:53:34;5.40;99.90
58413;DHT22;44209;52.952;6.790;2024-03-25T04:56:00;5.40;99.90
58413;DHT22;44209;52.952;6.790;2024-03-25T04:58:26;5.40;99.90
58413;DHT22;44209;52.952;6.790;2024-03-25T05:00:52;5.30;99.90
58413;DHT22;44209;52.952;6.790;2024-03-25T05:03:17;5.30;99.90
58413;DHT22;44209;52.952;6.790;2024-03-25T05:05:44;5.30;99.90
58413;DHT22;44209;52.952;6.790;2024-03-25T05:08:09;5.30;99.90
58413;DHT22;44209;52.952;6.790;2024-03-25T05:10:35;5.30;99.90
58413;DHT22;44209;52.952;6.790;2024-03-25T05:13:01;5.30;99.90
58413;DHT22;44209;52.952;6.790;2024-03-25T05:15:26;5.30;99.90
58413;DHT22;44209;52.952;6.790;2024-03-25T05:17:52;5.20;99.90
58413;DHT22;44209;52.952;6.790;2024-03-25T05:20:18;5.20;99.90
58413;DHT22;44209;52.952;6.790;2024-03-25T05:22:44;5.20;99.90
58413;DHT22;44209;52.952;6.790;2024-03-25T05:25:09;5.10;99.90
58413;DHT22;44209;52.952;6.790;2024-03-25T05:27:35;5.10;99.90
58413;DHT22;44209;52.952;6.790;2024-03-25T05:30:01;5.10;99.90
58413;DHT22;44209;52.952;6.790;2024-03-25T05:32:26;5.00;99.90
58413;DHT22;44209;52.952;6.790;2024-03-25T05:34:52;4.90;99.90
58413;DHT22;44209;52.952;6.790;2024-03-25T05:37:18;4.90;99.90
58413;DHT22;44209;52.952;6.790;2024-03-25T05:39:44;4.80;99.90
58413;DHT22;44209;52.952;6.790;2024-03-25T05:42:09;4.80;99.90
58413;DHT22;44209;52.952;6.790;2024-03-25T05:44:35;4.80;99.90
58413;DHT22;44209;52.952;6.790;2024-03-25T05:47:01;4.90;99.90
58413;DHT22;44209;52.952;6.790;2024-03-25T05:49:26;4.90;99.90
58413;DHT22;44209;52.952;6.790;2024-03-25T05:51:52;4.90;99.90
58413;DHT22;44209;52.952;6.790;2024-03-25T05:54:18;4.90;99.90
58413;DHT22;44209;52.952;6.790;2024-03-25T05:56:44;5.00;99.90
58413;DHT22;44209;52.952;6.790;2024-03-25T05:59:10;5.00;99.90
58413;DHT22;44209;52.952;6.790;2024-03-25T06:01:35;5.00;99.90
58413;DHT22;44209;52.952;6.790;2024-03-25T06:04:03;5.00;99.90
58413;DHT22;44209;52.952;6.790;2024-03-25T06:06:29;5.10;99.90
58413;DHT22;44209;52.952;6.790;2024-03-25T06:08:55;5.10;99.90
58413;DHT22;44209;52.952;6.790;2024-03-25T06:11:20;5.10;99.90
58413;DHT22;44209;52.952;6.790;2024-03-25T06:13:47;5.10;99.90
58413;DHT22;44209;52.952;6.790;2024-03-25T06:16:16;5.20;99.90
58413;DHT22;44209;52.952;6.790;2024-03-25T06:18:41;5.20;99.90
58413;DHT22;44209;52.952;6.790;2024-03-25T06:21:07;5.20;99.90
58413;DHT22;44209;52.952;6.790;2024-03-25T06:23:33;5.20;99.90
58413;DHT22;44209;52.952;6.790;2024-03-25T06:25:58;5.20;99.90
58413;DHT22;44209;52.952;6.790;2024-03-25T06:28:24;5.20;99.90
58413;DHT22;44209;52.952;6.790;2024-03-25T06:30:51;5.20;99.90
58413;DHT22;44209;52.952;6.790;2024-03-25T06:33:36;5.20;99.90
58413;DHT22;44209;52.952;6.790;2024-03-25T06:36:21;5.20;99.90
58413;DHT22;44209;52.952;6.790;2024-03-25T06:38:47;5.20;99.90
58413;DHT22;44209;52.952;6.790;2024-03-25T06:41:12;5.30;99.90
58413;DHT22;44209;52.952;6.790;2024-03-25T06:43:38;5.30;99.90
58413;DHT22;44209;52.952;6.790;2024-03-25T06:46:07;5.30;99.90
58413;DHT22;44209;52.952;6.790;2024-03-25T06:48:34;5.40;99.90
58413;DHT22;44209;52.952;6.790;2024-03-25T06:51:02;5.40;99.90
58413;DHT22;44209;52.952;6.790;2024-03-25T06:53:29;5.40;99.90
58413;DHT22;44209;52.952;6.790;2024-03-25T06:55:56;5.50;99.90
58413;DHT22;44209;52.952;6.790;2024-03-25T06:58:23;5.60;99.90
58413;DHT22;44209;52.952;6.790;2024-03-25T07:00:49;5.70;99.90
58413;DHT22;44209;52.952;6.790;2024-03-25T07:03:19;5.80;99.90
58413;DHT22;44209;52.952;6.790;2024-03-25T07:05:45;5.90;99.90
58413;DHT22;44209;52.952;6.790;2024-03-25T07:08:12;6.00;99.90
58413;DHT22;44209;52.952;6.790;2024-03-25T07:10:38;6.00;99.90
58413;DHT22;44209;52.952;6.790;2024-03-25T07:13:04;6.10;99.90
58413;DHT22;44209;52.952;6.790;2024-03-25T07:15:31;6.10;99.90
58413;DHT22;44209;52.952;6.790;2024-03-25T07:17:57;6.20;99.90
58413;DHT22;44209;52.952;6.790;2024-03-25T07:20:23;6.20;99.90
58413;DHT22;44209;52.952;6.790;2024-03-25T07:22:49;6.20;99.90
58413;DHT22;44209;52.952;6.790;2024-03-25T07:25:14;6.20;99.90
58413;DHT22;44209;52.952;6.790;2024-03-25T07:27:40;6.20;99.90
58413;DHT22;44209;52.952;6.790;2024-03-25T07:30:07;6.20;99.90
58413;DHT22;44209;52.952;6.790;2024-03-25T07:32:34;6.30;99.90
58413;DHT22;44209;52.952;6.790;2024-03-25T07:35:00;6.40;99.90
58413;DHT22;44209;52.952;6.790;2024-03-25T07:37:26;6.40;99.90
58413;DHT22;44209;52.952;6.790;2024-03-25T07:39:52;6.50;99.90
58413;DHT22;44209;52.952;6.790;2024-03-25T07:42:18;6.60;99.90
58413;DHT22;44209;52.952;6.790;2024-03-25T07:44:43;6.60;99.90
58413;DHT22;44209;52.952;6.790;2024-03-25T07:47:09;6.70;99.90
58413;DHT22;44209;52.952;6.790;2024-03-25T07:49:35;6.70;99.90
58413;DHT22;44209;52.952;6.790;2024-03-25T07:52:02;6.80;99.90
58413;DHT22;44209;52.952;6.790;2024-03-25T07:54:28;6.90;99.90
58413;DHT22;44209;52.952;6.790;2024-03-25T07:56:54;6.90;99.90
58413;DHT22;44209;52.952;6.790;2024-03-25T07:59:20;7.10;99.90
58413;DHT22;44209;52.952;6.790;2024-03-25T08:01:45;7.10;99.90
58413;DHT22;44209;52.952;6.790;2024-03-25T08:04:11;7.20;99.90
58413;DHT22;44209;52.952;6.790;2024-03-25T08:06:37;7.30;99.90
58413;DHT22;44209;52.952;6.790;2024-03-25T08:09:03;7.40;99.90
58413;DHT22;44209;52.952;6.790;2024-03-25T08:11:33;7.50;99.90
58413;DHT22;44209;52.952;6.790;2024-03-25T08:13:59;7.60;99.90
58413;DHT22;44209;52.952;6.790;2024-03-25T08:16:25;7.70;99.90
58413;DHT22;44209;52.952;6.790;2024-03-25T08:18:50;7.80;99.90
58413;DHT22;44209;52.952;6.790;2024-03-25T08:21:17;7.90;99.90
58413;DHT22;44209;52.952;6.790;2024-03-25T08:23:45;7.90;99.90
58413;DHT22;44209;52.952;6.790;2024-03-25T08:26:11;7.90;99.90
58413;DHT22;44209;52.952;6.790;2024-03-25T08:28:37;7.90;99.90
58413;DHT22;44209;52.952;6.790;2024-03-25T08:31:04;8.00;99.90
58413;DHT22;44209;52.952;6.790;2024-03-25T08:33:30;8.00;99.90
58413;DHT22;44209;52.952;6.790;2024-03-25T08:35:56;8.10;99.90
58413;DHT22;44209;52.952;6.790;2024-03-25T08:38:21;8.20;99.90
58413;DHT22;44209;52.952;6.790;2024-03-25T08:40:47;8.30;99.90
58413;DHT22;44209;52.952;6.790;2024-03-25T08:43:13;8.30;99.90
58413;DHT22;44209;52.952;6.790;2024-03-25T08:45:38;8.40;99.90
58413;DHT22;44209;52.952;6.790;2024-03-25T08:48:06;8.30;99.90
58413;DHT22;44209;52.952;6.790;2024-03-25T08:50:32;8.30;99.90
58413;DHT22;44209;52.952;6.790;2024-03-25T08:52:58;8.30;99.90
58413;DHT22;44209;52.952;6.790;2024-03-25T08:55:24;8.30;99.90
58413;DHT22;44209;52.952;6.790;2024-03-25T08:57:50;8.40;99.90
58413;DHT22;44209;52.952;6.790;2024-03-25T09:00:17;8.50;99.90
58413;DHT22;44209;52.952;6.790;2024-03-25T09:02:43;8.40;99.90
58413;DHT22;44209;52.952;6.790;2024-03-25T09:05:09;8.30;99.90
58413;DHT22;44209;52.952;6.790;2024-03-25T09:07:35;8.30;99.90
58413;DHT22;44209;52.952;6.790;2024-03-25T09:10:02;8.20;99.90
58413;DHT22;44209;52.952;6.790;2024-03-25T09:12:46;8.10;99.90
58413;DHT22;44209;52.952;6.790;2024-03-25T09:15:12;8.00;99.90
58413;DHT22;44209;52.952;6.790;2024-03-25T09:17:38;8.00;99.90
58413;DHT22;44209;52.952;6.790;2024-03-25T09:20:04;8.00;99.90
58413;DHT22;44209;52.952;6.790;2024-03-25T09:22:44;7.90;99.90
58413;DHT22;44209;52.952;6.790;2024-03-25T09:25:10;7.90;99.90
58413;DHT22;44209;52.952;6.790;2024-03-25T09:27:35;7.90;99.90
58413;DHT22;44209;52.952;6.790;2024-03-25T09:30:02;8.00;99.90
58413;DHT22;44209;52.952;6.790;2024-03-25T09:32:29;8.00;99.90
58413;DHT22;44209;52.952;6.790;2024-03-25T09:34:57;8.10;99.90
58413;DHT22;44209;52.952;6.790;2024-03-25T09:37:22;8.30;99.90
58413;DHT22;44209;52.952;6.790;2024-03-25T09:39:48;8.60;99.90
58413;DHT22;44209;52.952;6.790;2024-03-25T09:42:27;8.80;99.90
58413;DHT22;44209;52.952;6.790;2024-03-25T09:44:56;8.80;99.90
58413;DHT22;44209;52.952;6.790;2024-03-25T09:47:22;8.80;99.90
58413;DHT22;44209;52.952;6.790;2024-03-25T09:49:49;8.80;99.90
58413;DHT22;44209;52.952;6.790;2024-03-25T09:52:15;8.90;99.90
58413;DHT22;44209;52.952;6.790;2024-03-25T09:54:41;9.00;99.90
58413;DHT22;44209;52.952;6.790;2024-03-25T09:57:08;9.10;99.90
58413;DHT22;44209;52.952;6.790;2024-03-25T09:59:34;9.30;99.90
58413;DHT22;44209;52.952;6.790;2024-03-25T10:02:01;9.40;99.90
58413;DHT22;44209;52.952;6.790;2024-03-25T10:04:27;9.40;99.90
58413;DHT22;44209;52.952;6.790;2024-03-25T10:06:53;9.50;99.90
58413;DHT22;44209;52.952;6.790;2024-03-25T10:09:20;9.50;99.90
58413;DHT22;44209;52.952;6.790;2024-03-25T10:11:49;9.40;99.90
58413;DHT22;44209;52.952;6.790;2024-03-25T10:14:18;9.40;99.90
58413;DHT22;44209;52.952;6.790;2024-03-25T10:16:44;9.40;99.90
58413;DHT22;44209;52.952;6.790;2024-03-25T10:19:10;9.30;99.90
58413;DHT22;44209;52.952;6.790;2024-03-25T10:21:36;9.40;99.90
58413;DHT22;44209;52.952;6.790;2024-03-25T10:24:04;9.50;99.90
58413;DHT22;44209;52.952;6.790;2024-03-25T10:26:32;9.50;99.90
58413;DHT22;44209;52.952;6.790;2024-03-25T10:29:02;9.60;99.90
58413;DHT22;44209;52.952;6.790;2024-03-25T10:31:30;9.60;99.90
58413;DHT22;44209;52.952;6.790;2024-03-25T10:33:56;9.80;99.90
58413;DHT22;44209;52.952;6.790;2024-03-25T10:36:22;10.10;99.90
58413;DHT22;44209;52.952;6.790;2024-03-25T10:38:56;10.20;99.90
58413;DHT22;44209;52.952;6.790;2024-03-25T10:41:23;10.30;99.90
58413;DHT22;44209;52.952;6.790;2024-03-25T10:43:52;10.50;99.90
58413;DHT22;44209;52.952;6.790;2024-03-25T10:46:20;10.70;99.90
58413;DHT22;44209;52.952;6.790;2024-03-25T10:49:02;10.90;99.90
58413;DHT22;44209;52.952;6.790;2024-03-25T10:51:31;11.00;99.90
58413;DHT22;44209;52.952;6.790;2024-03-25T10:53:58;11.10;99.90
58413;DHT22;44209;52.952;6.790;2024-03-25T10:56:26;11.20;99.90
58413;DHT22;44209;52.952;6.790;2024-03-25T10:58:52;11.20;99.90
58413;DHT22;44209;52.952;6.790;2024-03-25T11:01:19;11.20;99.90
58413;DHT22;44209;52.952;6.790;2024-03-25T11:03:49;11.30;99.90
58413;DHT22;44209;52.952;6.790;2024-03-25T11:06:15;11.20;99.90
58413;DHT22;44209;52.952;6.790;2024-03-25T11:08:42;11.00;99.90
58413;DHT22;44209;52.952;6.790;2024-03-25T11:11:13;10.80;99.90
58413;DHT22;44209;52.952;6.790;2024-03-25T11:13:39;10.70;99.90
58413;DHT22;44209;52.952;6.790;2024-03-25T11:16:06;10.50;99.90
58413;DHT22;44209;52.952;6.790;2024-03-25T11:18:35;10.60;99.90
58413;DHT22;44209;52.952;6.790;2024-03-25T11:21:06;10.80;99.90
58413;DHT22;44209;52.952;6.790;2024-03-25T11:23:41;10.90;99.90
58413;DHT22;44209;52.952;6.790;2024-03-25T11:26:27;11.10;99.90
58413;DHT22;44209;52.952;6.790;2024-03-25T11:28:54;11.30;99.90
58413;DHT22;44209;52.952;6.790;2024-03-25T11:31:21;11.40;99.90
58413;DHT22;44209;52.952;6.790;2024-03-25T11:33:50;11.50;99.90
58413;DHT22;44209;52.952;6.790;2024-03-25T11:36:15;11.50;99.90
58413;DHT22;44209;52.952;6.790;2024-03-25T11:38:43;11.60;99.90
58413;DHT22;44209;52.952;6.790;2024-03-25T11:41:13;11.60;99.90
58413;DHT22;44209;52.952;6.790;2024-03-25T11:43:39;11.60;99.90
58413;DHT22;44209;52.952;6.790;2024-03-25T11:46:07;11.60;99.90
58413;DHT22;44209;52.952;6.790;2024-03-25T11:48:33;11.70;99.90
58413;DHT22;44209;52.952;6.790;2024-03-25T11:50:59;11.70;99.90
58413;DHT22;44209;52.952;6.790;2024-03-25T11:53:26;11.70;99.90
58413;DHT22;44209;52.952;6.790;2024-03-25T11:55:53;11.70;99.90
58413;DHT22;44209;52.952;6.790;2024-03-25T11:58:18;11.70;99.90
58413;DHT22;44209;52.952;6.790;2024-03-25T12:00:45;11.60;99.90
58413;DHT22;44209;52.952;6.790;2024-03-25T12:03:15;11.40;99.90
58413;DHT22;44209;52.952;6.790;2024-03-25T12:05:44;11.20;99.90
58413;DHT22;44209;52.952;6.790;2024-03-25T12:08:10;10.90;99.90
58413;DHT22;44209;52.952;6.790;2024-03-25T12:10:37;10.60;99.90
58413;DHT22;44209;52.952;6.790;2024-03-25T12:13:22;10.40;99.90
58413;DHT22;44209;52.952;6.790;2024-03-25T12:15:48;10.20;99.90
58413;DHT22;44209;52.952;6.790;2024-03-25T12:18:14;10.10;99.90
58413;DHT22;44209;52.952;6.790;2024-03-25T12:20:40;10.10;99.90
58413;DHT22;44209;52.952;6.790;2024-03-25T12:23:07;10.00;99.90
58413;DHT22;44209;52.952;6.790;2024-03-25T12:25:33;10.10;99.90
58413;DHT22;44209;52.952;6.790;2024-03-25T12:27:58;10.10;99.90
58413;DHT22;44209;52.952;6.790;2024-03-25T12:30:24;10.10;99.90
58413;DHT22;44209;52.952;6.790;2024-03-25T12:32:51;10.10;99.90
58413;DHT22;44209;52.952;6.790;2024-03-25T12:35:18;10.10;99.90
58413;DHT22;44209;52.952;6.790;2024-03-25T12:37:47;10.00;99.90
58413;DHT22;44209;52.952;6.790;2024-03-25T12:40:25;9.90;99.90
58413;DHT22;44209;52.952;6.790;2024-03-25T12:42:55;9.90;99.90
58413;DHT22;44209;52.952;6.790;2024-03-25T12:45:21;9.80;99.90
58413;DHT22;44209;52.952;6.790;2024-03-25T12:47:49;9.80;99.90
58413;DHT22;44209;52.952;6.790;2024-03-25T12:50:14;9.60;99.90
58413;DHT22;44209;52.952;6.790;2024-03-25T12:52:40;9.50;99.90
58413;DHT22;44209;52.952;6.790;2024-03-25T12:55:06;9.50;99.90
58413;DHT22;44209;52.952;6.790;2024-03-25T12:57:32;9.40;99.90
58413;DHT22;44209;52.952;6.790;2024-03-25T12:59:57;9.50;99.90
58413;DHT22;44209;52.952;6.790;2024-03-25T13:02:23;9.60;99.90
58413;DHT22;44209;52.952;6.790;2024-03-25T13:04:49;9.70;99.90
58413;DHT22;44209;52.952;6.790;2024-03-25T13:07:15;9.80;99.90
58413;DHT22;44209;52.952;6.790;2024-03-25T13:09:41;9.90;99.90
58413;DHT22;44209;52.952;6.790;2024-03-25T13:12:07;9.90;99.90
58413;DHT22;44209;52.952;6.790;2024-03-25T13:14:32;10.10;99.90
58413;DHT22;44209;52.952;6.790;2024-03-25T13:16:58;10.20;99.90
58413;DHT22;44209;52.952;6.790;2024-03-25T13:19:24;10.40;99.90
58413;DHT22;44209;52.952;6.790;2024-03-25T13:21:55;10.50;99.90
58413;DHT22;44209;52.952;6.790;2024-03-25T13:24:21;10.70;99.90
58413;DHT22;44209;52.952;6.790;2024-03-25T13:26:46;10.80;99.90
58413;DHT22;44209;52.952;6.790;2024-03-25T13:29:12;10.90;99.90
58413;DHT22;44209;52.952;6.790;2024-03-25T13:31:38;11.10;99.90
58413;DHT22;44209;52.952;6.790;2024-03-25T13:34:03;11.20;99.90
58413;DHT22;44209;52.952;6.790;2024-03-25T13:36:29;11.30;99.90
58413;DHT22;44209;52.952;6.790;2024-03-25T13:38:55;11.40;99.90
58413;DHT22;44209;52.952;6.790;2024-03-25T13:41:20;11.50;99.90
58413;DHT22;44209;52.952;6.790;2024-03-25T13:43:47;11.60;99.90
58413;DHT22;44209;52.952;6.790;2024-03-25T13:46:13;11.70;99.90
58413;DHT22;44209;52.952;6.790;2024-03-25T13:48:39;11.80;99.90
58413;DHT22;44209;52.952;6.790;2024-03-25T13:51:05;11.90;99.90
58413;DHT22;44209;52.952;6.790;2024-03-25T13:53:30;11.90;99.90
58413;DHT22;44209;52.952;6.790;2024-03-25T13:55:56;11.90;99.90
58413;DHT22;44209;52.952;6.790;2024-03-25T13:58:22;11.80;99.90
58413;DHT22;44209;52.952;6.790;2024-03-25T14:00:48;11.80;99.90
58413;DHT22;44209;52.952;6.790;2024-03-25T14:03:14;11.70;99.90
58413;DHT22;44209;52.952;6.790;2024-03-25T14:05:41;11.70;99.90
58413;DHT22;44209;52.952;6.790;2024-03-25T14:08:07;11.70;99.90
58413;DHT22;44209;52.952;6.790;2024-03-25T14:10:33;11.50;99.90
58413;DHT22;44209;52.952;6.790;2024-03-25T14:12:58;11.60;99.90
58413;DHT22;44209;52.952;6.790;2024-03-25T14:15:24;11.60;99.90
58413;DHT22;44209;52.952;6.790;2024-03-25T14:17:50;11.60;99.90
58413;DHT22;44209;52.952;6.790;2024-03-25T14:20:15;11.70;99.90
58413;DHT22;44209;52.952;6.790;2024-03-25T14:22:41;11.70;99.90
58413;DHT22;44209;52.952;6.790;2024-03-25T14:25:08;11.70;99.90
58413;DHT22;44209;52.952;6.790;2024-03-25T14:27:34;11.80;99.90
58413;DHT22;44209;52.952;6.790;2024-03-25T14:30:00;11.70;99.90
58413;DHT22;44209;52.952;6.790;2024-03-25T14:32:26;11.60;99.90
58413;DHT22;44209;52.952;6.790;2024-03-25T14:34:51;11.60;99.90
58413;DHT22;44209;52.952;6.790;2024-03-25T14:37:17;11.60;99.90
58413;DHT22;44209;52.952;6.790;2024-03-25T14:39:43;11.60;99.90
58413;DHT22;44209;52.952;6.790;2024-03-25T14:42:09;11.80;99.90
58413;DHT22;44209;52.952;6.790;2024-03-25T14:44:38;11.80;99.90
58413;DHT22;44209;52.952;6.790;2024-03-25T14:47:04;11.70;99.90
58413;DHT22;44209;52.952;6.790;2024-03-25T14:49:30;11.60;99.90
58413;DHT22;44209;52.952;6.790;2024-03-25T14:51:56;11.50;99.90
58413;DHT22;44209;52.952;6.790;2024-03-25T14:54:22;11.40;99.90
58413;DHT22;44209;52.952;6.790;2024-03-25T14:56:48;11.30;99.90
58413;DHT22;44209;52.952;6.790;2024-03-25T14:59:14;11.30;99.90
58413;DHT22;44209;52.952;6.790;2024-03-25T15:01:40;11.20;99.90
58413;DHT22;44209;52.952;6.790;2024-03-25T15:04:06;11.20;99.90
58413;DHT22;44209;52.952;6.790;2024-03-25T15:06:33;11.10;99.90
58413;DHT22;44209;52.952;6.790;2024-03-25T15:08:59;11.10;99.90
58413;DHT22;44209;52.952;6.790;2024-03-25T15:11:25;11.10;99.90
58413;DHT22;44209;52.952;6.790;2024-03-25T15:13:52;11.00;99.90
58413;DHT22;44209;52.952;6.790;2024-03-25T15:16:18;11.00;99.90
58413;DHT22;44209;52.952;6.790;2024-03-25T15:18:44;10.90;99.90
58413;DHT22;44209;52.952;6.790;2024-03-25T15:21:10;10.80;99.90
58413;DHT22;44209;52.952;6.790;2024-03-25T15:23:35;10.80;99.90
58413;DHT22;44209;52.952;6.790;2024-03-25T15:26:01;10.70;99.90
58413;DHT22;44209;52.952;6.790;2024-03-25T15:28:27;10.70;99.90
58413;DHT22;44209;52.952;6.790;2024-03-25T15:30:54;10.70;99.90
58413;DHT22;44209;52.952;6.790;2024-03-25T15:33:20;10.70;99.90
58413;DHT22;44209;52.952;6.790;2024-03-25T15:35:46;10.80;99.90
58413;DHT22;44209;52.952;6.790;2024-03-25T15:38:11;10.70;99.90